Strona główna
METAR-TAF:

METAR-TAF

Lotnisko :

Pikeville, Kentucky, Stany Zjednoczone

Szerokość geograficzna: 37-33-42N, Długość geograficzna: 082-33-59W, wysokość: 449 m

Aktualna obserwacja pogody

Raport powstał 34 minut temu, godzina 16:55 UTC
Cisza
Temperatura -2°C
Wilgotność 50%
Ciśnienie 1027 hPa
Widzialność: 16.1 km
bezchmurnie

METAR: KPBX 231655Z AUTO 00000KT 10SM CLR M02/M11 A3033 RMK AO2 T10201109

czas: 12:29 (17:29 UTC)


TAF: brakujący

Obserwacja i prognoza pogody dla ponad 4000 lotnisk (raport METAR i TAF).

Dostępne stacje oznaczono żółtymi i czerwonymi punktami na mapie.

Najedź kursorem aby zobaczyć nazwę stacji.

Kliknij aby zobaczyć obserwacje i prognozy pogody.

Aby zmienić mapę: kliknij na zielony przycisk z czarnym krzyżykiem, aby powiększyć; na zielony przycisk z myślnikiem, aby pomniejszyć; na zielone strzałki, aby przejść do map sąsiednich.


METAR-TAF: